Terminal Aerodrome Forecast
Issued by NWS Des Moines, IA

Home | Current Version | Previous Version | Text Only | Print | Product List | Glossary On
Versions: 1 2 3 4 5 6 7 8 9 10 11 12 13 14 15
000
FTUS43 KDMX 292329
TAFALO
TAF
KALO 292329Z 3000/3024 06017G25KT P6SM OVC080
     FM300600 06013KT P6SM VCSH OVC090
     FM301400 06017G24KT 4SM SHRA OVC080
     FM301800 07017G25KT 2SM SHRA OVC011=

USA.gov is the U.S. government's official web portal to all federal, state and local government web resources and services.